sensor_id;sensor_type;location;lat;lon;timestamp;pressure;altitude;pressure_sealevel;temperature;humidity
49723;BME280;43484;43.608;1.458;2023-08-12T00:00:06;100161.50;;;25.23;100.00
49723;BME280;43484;43.608;1.458;2023-08-12T00:02:40;100154.69;;;25.16;100.00
49723;BME280;43484;43.608;1.458;2023-08-12T00:05:08;100159.13;;;25.13;100.00
49723;BME280;43484;43.608;1.458;2023-08-12T00:07:37;100149.56;;;25.12;100.00
49723;BME280;43484;43.608;1.458;2023-08-12T00:10:05;100143.38;;;25.14;100.00
49723;BME280;43484;43.608;1.458;2023-08-12T00:12:32;100148.84;;;25.04;100.00
49723;BME280;43484;43.608;1.458;2023-08-12T00:14:59;100142.03;;;24.98;100.00
49723;BME280;43484;43.608;1.458;2023-08-12T00:17:26;100148.16;;;24.97;100.00
49723;BME280;43484;43.608;1.458;2023-08-12T00:19:53;100149.94;;;24.95;100.00
49723;BME280;43484;43.608;1.458;2023-08-12T00:22:19;100148.25;;;24.93;100.00
49723;BME280;43484;43.608;1.458;2023-08-12T00:24:46;100143.06;;;24.91;100.00
49723;BME280;43484;43.608;1.458;2023-08-12T00:27:13;100140.47;;;24.90;100.00
49723;BME280;43484;43.608;1.458;2023-08-12T00:29:39;100150.16;;;24.86;100.00
49723;BME280;43484;43.608;1.458;2023-08-12T00:32:08;100141.41;;;24.87;100.00
49723;BME280;43484;43.608;1.458;2023-08-12T00:34:36;100144.88;;;24.88;100.00
49723;BME280;43484;43.608;1.458;2023-08-12T00:37:02;100138.84;;;24.84;100.00
49723;BME280;43484;43.608;1.458;2023-08-12T00:39:29;100136.44;;;24.75;100.00
49723;BME280;43484;43.608;1.458;2023-08-12T00:41:56;100137.31;;;24.75;100.00
49723;BME280;43484;43.608;1.458;2023-08-12T00:44:22;100128.66;;;24.72;100.00
49723;BME280;43484;43.608;1.458;2023-08-12T00:46:49;100132.19;;;24.71;100.00
49723;BME280;43484;43.608;1.458;2023-08-12T00:49:17;100133.06;;;24.70;100.00
49723;BME280;43484;43.608;1.458;2023-08-12T00:51:45;100134.97;;;24.62;100.00
49723;BME280;43484;43.608;1.458;2023-08-12T00:54:14;100128.88;;;24.61;100.00
49723;BME280;43484;43.608;1.458;2023-08-12T00:56:41;100131.59;;;24.57;100.00
49723;BME280;43484;43.608;1.458;2023-08-12T00:59:09;100132.56;;;24.53;100.00
49723;BME280;43484;43.608;1.458;2023-08-12T01:01:40;100130.72;;;24.58;100.00
49723;BME280;43484;43.608;1.458;2023-08-12T01:04:07;100136.06;;;24.52;100.00
49723;BME280;43484;43.608;1.458;2023-08-12T01:06:35;100123.84;;;24.52;100.00
49723;BME280;43484;43.608;1.458;2023-08-12T01:09:02;100115.94;;;24.54;100.00
49723;BME280;43484;43.608;1.458;2023-08-12T01:11:48;100110.06;;;24.44;100.00
49723;BME280;43484;43.608;1.458;2023-08-12T01:14:30;100116.28;;;24.39;100.00
49723;BME280;43484;43.608;1.458;2023-08-12T01:17:01;100111.16;;;24.34;100.00
49723;BME280;43484;43.608;1.458;2023-08-12T01:19:37;100113.78;;;24.34;100.00
49723;BME280;43484;43.608;1.458;2023-08-12T01:22:06;100111.25;;;24.30;100.00
49723;BME280;43484;43.608;1.458;2023-08-12T01:24:44;100112.19;;;24.27;100.00
49723;BME280;43484;43.608;1.458;2023-08-12T01:27:12;100107.03;;;24.24;100.00
49723;BME280;43484;43.608;1.458;2023-08-12T01:29:41;100108.75;;;24.24;100.00
49723;BME280;43484;43.608;1.458;2023-08-12T01:32:16;100101.09;;;24.16;100.00
49723;BME280;43484;43.608;1.458;2023-08-12T01:35:06;100103.59;;;24.21;100.00
49723;BME280;43484;43.608;1.458;2023-08-12T01:37:36;100101.06;;;24.18;100.00
49723;BME280;43484;43.608;1.458;2023-08-12T01:40:05;100102.00;;;24.14;100.00
49723;BME280;43484;43.608;1.458;2023-08-12T01:42:33;100109.81;;;24.15;100.00
49723;BME280;43484;43.608;1.458;2023-08-12T01:45:01;100119.47;;;24.13;100.00
49723;BME280;43484;43.608;1.458;2023-08-12T01:47:28;100113.50;;;24.07;100.00
49723;BME280;43484;43.608;1.458;2023-08-12T01:49:55;100110.25;;;23.94;100.00
49723;BME280;43484;43.608;1.458;2023-08-12T01:52:22;100106.69;;;23.97;100.00
49723;BME280;43484;43.608;1.458;2023-08-12T01:54:49;100111.88;;;24.00;100.00
49723;BME280;43484;43.608;1.458;2023-08-12T01:57:16;100106.81;;;23.91;100.00
49723;BME280;43484;43.608;1.458;2023-08-12T01:59:43;100106.03;;;23.87;100.00
49723;BME280;43484;43.608;1.458;2023-08-12T02:02:13;100106.94;;;23.86;100.00
49723;BME280;43484;43.608;1.458;2023-08-12T02:04:40;100101.75;;;23.82;100.00
49723;BME280;43484;43.608;1.458;2023-08-12T02:07:06;100095.56;;;23.87;100.00
49723;BME280;43484;43.608;1.458;2023-08-12T02:09:33;100102.50;;;23.88;100.00
49723;BME280;43484;43.608;1.458;2023-08-12T02:12:00;100098.97;;;23.91;100.00
49723;BME280;43484;43.608;1.458;2023-08-12T02:14:26;100105.09;;;23.90;100.00
49723;BME280;43484;43.608;1.458;2023-08-12T02:16:53;100100.06;;;23.81;100.00
49723;BME280;43484;43.608;1.458;2023-08-12T02:19:19;100098.50;;;23.71;100.00
49723;BME280;43484;43.608;1.458;2023-08-12T02:21:46;100093.38;;;23.66;100.00
49723;BME280;43484;43.608;1.458;2023-08-12T02:24:13;100098.66;;;23.62;100.00
49723;BME280;43484;43.608;1.458;2023-08-12T02:26:40;100101.38;;;23.57;100.00
49723;BME280;43484;43.608;1.458;2023-08-12T02:29:06;100106.75;;;23.49;100.00
49723;BME280;43484;43.608;1.458;2023-08-12T02:31:33;100098.91;;;23.49;100.00
49723;BME280;43484;43.608;1.458;2023-08-12T02:33:59;100098.97;;;23.46;100.00
49723;BME280;43484;43.608;1.458;2023-08-12T02:36:26;100091.81;;;23.56;100.00
49723;BME280;43484;43.608;1.458;2023-08-12T02:38:53;100087.47;;;23.55;100.00
49723;BME280;43484;43.608;1.458;2023-08-12T02:41:19;100091.81;;;23.54;100.00
49723;BME280;43484;43.608;1.458;2023-08-12T02:43:46;100092.00;;;23.47;100.00
49723;BME280;43484;43.608;1.458;2023-08-12T02:46:13;100092.91;;;23.43;100.00
49723;BME280;43484;43.608;1.458;2023-08-12T02:48:42;100095.53;;;23.43;100.00
49723;BME280;43484;43.608;1.458;2023-08-12T02:51:09;100092.03;;;23.45;100.00
49723;BME280;43484;43.608;1.458;2023-08-12T02:53:36;100091.16;;;23.45;100.00
49723;BME280;43484;43.608;1.458;2023-08-12T02:56:03;100093.78;;;23.43;100.00
49723;BME280;43484;43.608;1.458;2023-08-12T02:58:30;100093.88;;;23.39;100.00
49723;BME280;43484;43.608;1.458;2023-08-12T03:00:56;100096.56;;;23.34;100.00
49723;BME280;43484;43.608;1.458;2023-08-12T03:03:23;100102.84;;;23.23;100.00
49723;BME280;43484;43.608;1.458;2023-08-12T03:05:50;100102.00;;;23.22;100.00
49723;BME280;43484;43.608;1.458;2023-08-12T03:08:16;100107.19;;;23.27;100.00
49723;BME280;43484;43.608;1.458;2023-08-12T03:10:44;100105.59;;;23.15;100.00
49723;BME280;43484;43.608;1.458;2023-08-12T03:13:11;100104.78;;;23.12;100.00
49723;BME280;43484;43.608;1.458;2023-08-12T03:15:41;100104.63;;;23.19;100.00
49723;BME280;43484;43.608;1.458;2023-08-12T03:18:09;100095.13;;;23.17;100.00
49723;BME280;43484;43.608;1.458;2023-08-12T03:20:36;100084.69;;;23.15;100.00
49723;BME280;43484;43.608;1.458;2023-08-12T03:23:03;100093.44;;;23.13;100.00
49723;BME280;43484;43.608;1.458;2023-08-12T03:25:30;100097.59;;;23.26;100.00
49723;BME280;43484;43.608;1.458;2023-08-12T03:27:56;100086.50;;;23.12;100.00
49723;BME280;43484;43.608;1.458;2023-08-12T03:30:23;100091.91;;;23.01;100.00
49723;BME280;43484;43.608;1.458;2023-08-12T03:32:51;100085.84;;;22.98;100.00
49723;BME280;43484;43.608;1.458;2023-08-12T03:35:18;100088.44;;;22.99;100.00
49723;BME280;43484;43.608;1.458;2023-08-12T03:37:45;100082.41;;;22.96;100.00
49723;BME280;43484;43.608;1.458;2023-08-12T03:40:12;100081.59;;;22.91;100.00
49723;BME280;43484;43.608;1.458;2023-08-12T03:42:38;100076.47;;;22.86;100.00
49723;BME280;43484;43.608;1.458;2023-08-12T03:45:06;100071.41;;;22.76;100.00
49723;BME280;43484;43.608;1.458;2023-08-12T03:47:32;100060.19;;;22.69;100.00
49723;BME280;43484;43.608;1.458;2023-08-12T03:49:59;100053.19;;;22.73;100.00
49723;BME280;43484;43.608;1.458;2023-08-12T03:52:26;100053.81;;;22.88;100.00
49723;BME280;43484;43.608;1.458;2023-08-12T03:54:53;100053.94;;;22.79;100.00
49723;BME280;43484;43.608;1.458;2023-08-12T03:57:20;100051.53;;;22.69;100.00
49723;BME280;43484;43.608;1.458;2023-08-12T03:59:46;100058.47;;;22.70;100.00
49723;BME280;43484;43.608;1.458;2023-08-12T04:02:13;100060.38;;;22.60;100.00
49723;BME280;43484;43.608;1.458;2023-08-12T04:04:39;100058.44;;;22.71;100.00
49723;BME280;43484;43.608;1.458;2023-08-12T04:07:06;100059.25;;;22.75;100.00
49723;BME280;43484;43.608;1.458;2023-08-12T04:09:33;100068.84;;;22.73;100.00
49723;BME280;43484;43.608;1.458;2023-08-12T04:11:59;100073.41;;;22.60;100.00
49723;BME280;43484;43.608;1.458;2023-08-12T04:14:26;100068.28;;;22.54;100.00
49723;BME280;43484;43.608;1.458;2023-08-12T04:16:53;100075.06;;;22.66;100.00
49723;BME280;43484;43.608;1.458;2023-08-12T04:19:20;100073.97;;;22.80;100.00
49723;BME280;43484;43.608;1.458;2023-08-12T04:21:46;100089.84;;;22.68;100.00
49723;BME280;43484;43.608;1.458;2023-08-12T04:24:13;100088.31;;;22.54;100.00
49723;BME280;43484;43.608;1.458;2023-08-12T04:26:39;100082.28;;;22.49;100.00
49723;BME280;43484;43.608;1.458;2023-08-12T04:29:06;100073.66;;;22.44;100.00
49723;BME280;43484;43.608;1.458;2023-08-12T04:31:33;100074.53;;;22.41;100.00
49723;BME280;43484;43.608;1.458;2023-08-12T04:34:00;100069.44;;;22.33;100.00
49723;BME280;43484;43.608;1.458;2023-08-12T04:36:27;100069.25;;;22.44;100.00
49723;BME280;43484;43.608;1.458;2023-08-12T04:38:53;100057.19;;;22.35;100.00
49723;BME280;43484;43.608;1.458;2023-08-12T04:41:20;100068.28;;;22.51;100.00
49723;BME280;43484;43.608;1.458;2023-08-12T04:43:46;100075.47;;;22.37;100.00
49723;BME280;43484;43.608;1.458;2023-08-12T04:46:13;100069.47;;;22.29;100.00
49723;BME280;43484;43.608;1.458;2023-08-12T04:48:40;100073.84;;;22.30;100.00
49723;BME280;43484;43.608;1.458;2023-08-12T04:51:06;100071.28;;;22.25;100.00
49723;BME280;43484;43.608;1.458;2023-08-12T04:53:33;100072.03;;;22.35;100.00
49723;BME280;43484;43.608;1.458;2023-08-12T04:56:00;100070.25;;;22.38;100.00
49723;BME280;43484;43.608;1.458;2023-08-12T04:58:27;100062.31;;;22.43;100.00
49723;BME280;43484;43.608;1.458;2023-08-12T05:00:53;100076.06;;;22.59;100.00
49723;BME280;43484;43.608;1.458;2023-08-12T05:03:20;100083.97;;;22.50;100.00
49723;BME280;43484;43.608;1.458;2023-08-12T05:05:51;100087.56;;;22.42;100.00
49723;BME280;43484;43.608;1.458;2023-08-12T05:08:18;100081.53;;;22.37;100.00
49723;BME280;43484;43.608;1.458;2023-08-12T05:10:47;100089.44;;;22.34;100.00
49723;BME280;43484;43.608;1.458;2023-08-12T05:13:15;100084.16;;;22.37;100.00
49723;BME280;43484;43.608;1.458;2023-08-12T05:15:41;100094.44;;;22.50;100.00
49723;BME280;43484;43.608;1.458;2023-08-12T05:18:11;100108.44;;;22.42;100.00
49723;BME280;43484;43.608;1.458;2023-08-12T05:20:37;100111.25;;;22.29;100.00
49723;BME280;43484;43.608;1.458;2023-08-12T05:23:04;100123.56;;;22.19;100.00
49723;BME280;43484;43.608;1.458;2023-08-12T05:25:30;100130.38;;;22.29;100.00
49723;BME280;43484;43.608;1.458;2023-08-12T05:27:57;100130.31;;;22.34;100.00
49723;BME280;43484;43.608;1.458;2023-08-12T05:30:24;100136.31;;;22.40;100.00
49723;BME280;43484;43.608;1.458;2023-08-12T05:32:51;100138.03;;;22.45;100.00
49723;BME280;43484;43.608;1.458;2023-08-12T05:35:17;100146.72;;;22.45;100.00
49723;BME280;43484;43.608;1.458;2023-08-12T05:37:44;100138.84;;;22.48;100.00
49723;BME280;43484;43.608;1.458;2023-08-12T05:40:11;100146.59;;;22.54;100.00
49723;BME280;43484;43.608;1.458;2023-08-12T05:42:38;100149.09;;;22.65;100.00
49723;BME280;43484;43.608;1.458;2023-08-12T05:45:05;100153.31;;;22.73;100.00
49723;BME280;43484;43.608;1.458;2023-08-12T05:47:34;100152.50;;;22.70;100.00
49723;BME280;43484;43.608;1.458;2023-08-12T05:50:01;100148.81;;;22.83;100.00
49723;BME280;43484;43.608;1.458;2023-08-12T05:52:27;100154.06;;;22.81;100.00
49723;BME280;43484;43.608;1.458;2023-08-12T05:54:54;100142.75;;;22.79;100.00
49723;BME280;43484;43.608;1.458;2023-08-12T05:57:20;100142.75;;;22.82;100.00
49723;BME280;43484;43.608;1.458;2023-08-12T05:59:47;100150.56;;;22.84;100.00
49723;BME280;43484;43.608;1.458;2023-08-12T06:02:14;100148.09;;;22.73;100.00
49723;BME280;43484;43.608;1.458;2023-08-12T06:04:40;100154.69;;;22.97;100.00
49723;BME280;43484;43.608;1.458;2023-08-12T06:07:07;100145.94;;;22.98;100.00
49723;BME280;43484;43.608;1.458;2023-08-12T06:09:34;100145.19;;;22.91;100.00
49723;BME280;43484;43.608;1.458;2023-08-12T06:12:01;100139.00;;;22.98;100.00
49723;BME280;43484;43.608;1.458;2023-08-12T06:14:28;100145.72;;;23.11;100.00
49723;BME280;43484;43.608;1.458;2023-08-12T06:16:54;100139.66;;;23.09;100.00
49723;BME280;43484;43.608;1.458;2023-08-12T06:19:24;100143.28;;;23.01;100.00
49723;BME280;43484;43.608;1.458;2023-08-12T06:21:51;100138.16;;;22.95;100.00
49723;BME280;43484;43.608;1.458;2023-08-12T06:24:18;100144.22;;;22.98;100.00
49723;BME280;43484;43.608;1.458;2023-08-12T06:26:44;100144.88;;;23.11;100.00
49723;BME280;43484;43.608;1.458;2023-08-12T06:29:11;100144.88;;;23.11;100.00
49723;BME280;43484;43.608;1.458;2023-08-12T06:31:38;100138.81;;;23.09;100.00
49723;BME280;43484;43.608;1.458;2023-08-12T06:34:04;100135.25;;;23.13;100.00
49723;BME280;43484;43.608;1.458;2023-08-12T06:36:31;100142.25;;;23.11;100.00
49723;BME280;43484;43.608;1.458;2023-08-12T06:38:58;100140.56;;;23.08;100.00
49723;BME280;43484;43.608;1.458;2023-08-12T06:41:24;100137.94;;;23.08;100.00
49723;BME280;43484;43.608;1.458;2023-08-12T06:43:51;100136.19;;;23.10;100.00
49723;BME280;43484;43.608;1.458;2023-08-12T06:46:17;100136.19;;;23.10;100.00
49723;BME280;43484;43.608;1.458;2023-08-12T06:48:44;100141.31;;;23.15;100.00
49723;BME280;43484;43.608;1.458;2023-08-12T06:51:11;100147.34;;;23.20;100.00
49723;BME280;43484;43.608;1.458;2023-08-12T06:53:38;100129.19;;;23.12;100.00
49723;BME280;43484;43.608;1.458;2023-08-12T06:56:05;100138.50;;;23.28;100.00
49723;BME280;43484;43.608;1.458;2023-08-12T06:58:33;100137.69;;;23.23;100.00
49723;BME280;43484;43.608;1.458;2023-08-12T07:00:59;100142.88;;;23.26;100.00
49723;BME280;43484;43.608;1.458;2023-08-12T07:03:26;100145.47;;;23.28;100.00
49723;BME280;43484;43.608;1.458;2023-08-12T07:05:53;100144.31;;;23.45;100.00
49723;BME280;43484;43.608;1.458;2023-08-12T07:08:20;100145.03;;;23.53;100.00
49723;BME280;43484;43.608;1.458;2023-08-12T07:10:47;100153.56;;;23.63;100.00
49723;BME280;43484;43.608;1.458;2023-08-12T07:13:14;100154.59;;;23.54;100.00
49723;BME280;43484;43.608;1.458;2023-08-12T07:15:40;100147.75;;;23.49;100.00
49723;BME280;43484;43.608;1.458;2023-08-12T07:18:07;100145.84;;;23.57;100.00
49723;BME280;43484;43.608;1.458;2023-08-12T07:20:34;100144.72;;;23.70;100.00
49723;BME280;43484;43.608;1.458;2023-08-12T07:23:01;100147.38;;;23.69;100.00
49723;BME280;43484;43.608;1.458;2023-08-12T07:25:27;100144.81;;;23.66;100.00
49723;BME280;43484;43.608;1.458;2023-08-12T07:27:54;100157.50;;;23.41;100.00
49723;BME280;43484;43.608;1.458;2023-08-12T07:30:20;100136.72;;;23.32;100.00
49723;BME280;43484;43.608;1.458;2023-08-12T07:32:47;100127.53;;;23.57;100.00
49723;BME280;43484;43.608;1.458;2023-08-12T07:35:14;100136.75;;;23.78;100.00
49723;BME280;43484;43.608;1.458;2023-08-12T07:37:41;100140.03;;;23.87;100.00
49723;BME280;43484;43.608;1.458;2023-08-12T07:40:08;100142.25;;;23.64;100.00
49723;BME280;43484;43.608;1.458;2023-08-12T07:42:35;100137.69;;;23.74;100.00
49723;BME280;43484;43.608;1.458;2023-08-12T07:45:02;100145.28;;;23.87;100.00
49723;BME280;43484;43.608;1.458;2023-08-12T07:47:29;100150.63;;;23.80;100.00
49723;BME280;43484;43.608;1.458;2023-08-12T07:49:56;100147.75;;;23.93;100.00
49723;BME280;43484;43.608;1.458;2023-08-12T07:52:22;100152.13;;;23.94;100.00
49723;BME280;43484;43.608;1.458;2023-08-12T07:54:49;100142.19;;;23.67;100.00
49723;BME280;43484;43.608;1.458;2023-08-12T07:57:15;100155.59;;;23.93;100.00
49723;BME280;43484;43.608;1.458;2023-08-12T07:59:42;100158.78;;;24.10;100.00
49723;BME280;43484;43.608;1.458;2023-08-12T08:02:09;100165.38;;;23.85;100.00
49723;BME280;43484;43.608;1.458;2023-08-12T08:04:36;100151.16;;;24.00;100.00
49723;BME280;43484;43.608;1.458;2023-08-12T08:07:03;100152.41;;;24.23;100.00
49723;BME280;43484;43.608;1.458;2023-08-12T08:09:29;100162.53;;;24.41;100.00
49723;BME280;43484;43.608;1.458;2023-08-12T08:11:56;100173.63;;;24.52;100.00
49723;BME280;43484;43.608;1.458;2023-08-12T08:14:22;100184.13;;;24.51;100.00
49723;BME280;43484;43.608;1.458;2023-08-12T08:16:49;100184.13;;;24.08;100.00
49723;BME280;43484;43.608;1.458;2023-08-12T08:19:16;100184.94;;;24.12;100.00
49723;BME280;43484;43.608;1.458;2023-08-12T08:21:45;100180.84;;;23.99;100.00
49723;BME280;43484;43.608;1.458;2023-08-12T08:24:11;100174.50;;;24.10;100.00
49723;BME280;43484;43.608;1.458;2023-08-12T08:26:39;100183.25;;;24.09;100.00
49723;BME280;43484;43.608;1.458;2023-08-12T08:29:09;100170.34;;;24.00;100.00
49723;BME280;43484;43.608;1.458;2023-08-12T08:31:35;100180.16;;;23.88;100.00
49723;BME280;43484;43.608;1.458;2023-08-12T08:34:02;100177.47;;;23.91;100.00
49723;BME280;43484;43.608;1.458;2023-08-12T08:36:29;100170.25;;;24.06;100.00
49723;BME280;43484;43.608;1.458;2023-08-12T08:38:55;100171.84;;;24.12;100.00
49723;BME280;43484;43.608;1.458;2023-08-12T08:41:23;100179.56;;;24.19;100.00
49723;BME280;43484;43.608;1.458;2023-08-12T08:43:52;100182.66;;;24.38;100.00
49723;BME280;43484;43.608;1.458;2023-08-12T08:46:21;100186.03;;;24.44;100.00
49723;BME280;43484;43.608;1.458;2023-08-12T08:48:48;100187.47;;;24.57;100.00
49723;BME280;43484;43.608;1.458;2023-08-12T08:51:19;100183.06;;;24.59;100.00
49723;BME280;43484;43.608;1.458;2023-08-12T08:53:46;100184.66;;;24.68;100.00
49723;BME280;43484;43.608;1.458;2023-08-12T08:56:14;100189.16;;;24.61;100.00
49723;BME280;43484;43.608;1.458;2023-08-12T08:58:41;100192.88;;;24.50;100.00
49723;BME280;43484;43.608;1.458;2023-08-12T09:01:08;100194.03;;;24.37;100.00
49723;BME280;43484;43.608;1.458;2023-08-12T09:03:38;100193.00;;;24.44;100.00
49723;BME280;43484;43.608;1.458;2023-08-12T09:06:05;100198.88;;;24.56;100.00
49723;BME280;43484;43.608;1.458;2023-08-12T09:08:32;100197.75;;;24.68;100.00
49723;BME280;43484;43.608;1.458;2023-08-12T09:11:00;100191.72;;;24.63;100.00
49723;BME280;43484;43.608;1.458;2023-08-12T09:13:29;100195.75;;;24.79;100.00
49723;BME280;43484;43.608;1.458;2023-08-12T09:15:56;100198.25;;;24.84;100.00
49723;BME280;43484;43.608;1.458;2023-08-12T09:18:23;100199.81;;;24.92;100.00
49723;BME280;43484;43.608;1.458;2023-08-12T09:20:51;100204.91;;;25.00;100.00
49723;BME280;43484;43.608;1.458;2023-08-12T09:23:17;100202.91;;;25.09;100.00
49723;BME280;43484;43.608;1.458;2023-08-12T09:25:45;100202.75;;;25.15;100.00
49723;BME280;43484;43.608;1.458;2023-08-12T09:28:12;100193.84;;;25.22;100.00
49723;BME280;43484;43.608;1.458;2023-08-12T09:30:40;100202.34;;;25.33;100.00
49723;BME280;43484;43.608;1.458;2023-08-12T09:33:08;100201.34;;;25.39;100.00
49723;BME280;43484;43.608;1.458;2023-08-12T09:35:42;100209.06;;;25.45;100.00
49723;BME280;43484;43.608;1.458;2023-08-12T09:38:12;100207.13;;;25.53;100.00
49723;BME280;43484;43.608;1.458;2023-08-12T09:40:40;100206.91;;;25.60;100.00
49723;BME280;43484;43.608;1.458;2023-08-12T09:43:07;100213.91;;;25.61;100.00
49723;BME280;43484;43.608;1.458;2023-08-12T09:45:34;100211.34;;;25.58;100.00
49723;BME280;43484;43.608;1.458;2023-08-12T09:48:01;100213.72;;;25.67;100.00
49723;BME280;43484;43.608;1.458;2023-08-12T09:50:28;100205.63;;;25.76;100.00
49723;BME280;43484;43.608;1.458;2023-08-12T09:52:55;100217.00;;;25.77;100.00
49723;BME280;43484;43.608;1.458;2023-08-12T09:55:24;100214.66;;;25.98;100.00
49723;BME280;43484;43.608;1.458;2023-08-12T09:57:53;100213.44;;;26.12;100.00
49723;BME280;43484;43.608;1.458;2023-08-12T10:00:22;100205.75;;;26.06;100.00
49723;BME280;43484;43.608;1.458;2023-08-12T10:02:50;100210.03;;;26.08;100.00
49723;BME280;43484;43.608;1.458;2023-08-12T10:05:23;100203.72;;;26.15;100.00
49723;BME280;43484;43.608;1.458;2023-08-12T10:07:53;100205.34;;;26.19;100.00
49723;BME280;43484;43.608;1.458;2023-08-12T10:10:23;100210.41;;;26.27;100.00
49723;BME280;43484;43.608;1.458;2023-08-12T10:12:51;100206.84;;;26.28;100.00
49723;BME280;43484;43.608;1.458;2023-08-12T10:15:19;100207.56;;;26.33;100.00
49723;BME280;43484;43.608;1.458;2023-08-12T10:17:46;100206.34;;;26.46;100.00
49723;BME280;43484;43.608;1.458;2023-08-12T10:20:17;100208.78;;;26.52;100.00
49723;BME280;43484;43.608;1.458;2023-08-12T10:22:46;100203.09;;;26.67;100.00
49723;BME280;43484;43.608;1.458;2023-08-12T10:25:13;100199.28;;;26.77;100.00
49723;BME280;43484;43.608;1.458;2023-08-12T10:27:41;100193.06;;;26.79;100.00
49723;BME280;43484;43.608;1.458;2023-08-12T10:30:08;100196.13;;;26.93;100.00
49723;BME280;43484;43.608;1.458;2023-08-12T10:32:36;100195.16;;;26.97;100.00
49723;BME280;43484;43.608;1.458;2023-08-12T10:35:04;100186.88;;;27.08;100.00
49723;BME280;43484;43.608;1.458;2023-08-12T10:37:32;100188.31;;;27.18;100.00
49723;BME280;43484;43.608;1.458;2023-08-12T10:40:04;100190.16;;;27.16;100.00
49723;BME280;43484;43.608;1.458;2023-08-12T10:45:06;100179.75;;;27.11;100.00
49723;BME280;43484;43.608;1.458;2023-08-12T10:47:33;100178.44;;;27.25;100.00
49723;BME280;43484;43.608;1.458;2023-08-12T10:50:01;100170.47;;;27.28;100.00
49723;BME280;43484;43.608;1.458;2023-08-12T10:52:29;100173.09;;;27.29;100.00
49723;BME280;43484;43.608;1.458;2023-08-12T10:55:31;100167.09;;;27.50;100.00
49723;BME280;43484;43.608;1.458;2023-08-12T10:58:08;100163.50;;;27.53;100.00
49723;BME280;43484;43.608;1.458;2023-08-12T11:00:35;100161.81;;;27.50;100.00
49723;BME280;43484;43.608;1.458;2023-08-12T11:03:05;100158.94;;;27.58;100.00
49723;BME280;43484;43.608;1.458;2023-08-12T11:05:38;100151.72;;;27.87;100.00
49723;BME280;43484;43.608;1.458;2023-08-12T11:08:05;100144.63;;;27.91;100.00
49723;BME280;43484;43.608;1.458;2023-08-12T11:10:34;100150.53;;;27.97;100.00
49723;BME280;43484;43.608;1.458;2023-08-12T11:13:02;100146.13;;;27.98;100.00
49723;BME280;43484;43.608;1.458;2023-08-12T11:15:33;100146.13;;;27.98;100.00
49723;BME280;43484;43.608;1.458;2023-08-12T11:18:08;100143.38;;;28.01;100.00
49723;BME280;43484;43.608;1.458;2023-08-12T11:20:36;100140.28;;;27.88;100.00
49723;BME280;43484;43.608;1.458;2023-08-12T11:23:04;100141.19;;;28.12;100.00
49723;BME280;43484;43.608;1.458;2023-08-12T11:25:32;100144.44;;;28.18;100.00
49723;BME280;43484;43.608;1.458;2023-08-12T11:27:59;100135.66;;;28.19;100.00
49723;BME280;43484;43.608;1.458;2023-08-12T11:30:27;100132.25;;;28.16;100.00
49723;BME280;43484;43.608;1.458;2023-08-12T11:32:58;100135.19;;;28.31;100.00
49723;BME280;43484;43.608;1.458;2023-08-12T11:35:25;100133.31;;;28.80;100.00
49723;BME280;43484;43.608;1.458;2023-08-12T11:37:54;100129.84;;;28.56;100.00
49723;BME280;43484;43.608;1.458;2023-08-12T11:40:27;100122.56;;;28.63;100.00
49723;BME280;43484;43.608;1.458;2023-08-12T11:42:54;100126.97;;;28.84;100.00
49723;BME280;43484;43.608;1.458;2023-08-12T11:45:24;100126.00;;;28.86;100.00
49723;BME280;43484;43.608;1.458;2023-08-12T11:47:51;100122.63;;;28.83;100.00
49723;BME280;43484;43.608;1.458;2023-08-12T11:50:26;100117.16;;;28.66;100.00
49723;BME280;43484;43.608;1.458;2023-08-12T11:52:55;100121.75;;;28.82;100.00
49723;BME280;43484;43.608;1.458;2023-08-12T11:55:22;100119.44;;;28.75;100.00
49723;BME280;43484;43.608;1.458;2023-08-12T11:57:50;100112.56;;;28.71;100.00
49723;BME280;43484;43.608;1.458;2023-08-12T12:00:18;100117.34;;;28.83;100.00
49723;BME280;43484;43.608;1.458;2023-08-12T12:02:54;100115.41;;;29.09;100.00
49723;BME280;43484;43.608;1.458;2023-08-12T12:05:30;100118.63;;;29.16;100.00
49723;BME280;43484;43.608;1.458;2023-08-12T12:07:59;100130.94;;;29.37;100.00
49723;BME280;43484;43.608;1.458;2023-08-12T12:12:59;100118.59;;;29.37;100.00
49723;BME280;43484;43.608;1.458;2023-08-12T12:15:26;100107.25;;;29.56;100.00
49723;BME280;43484;43.608;1.458;2023-08-12T12:17:52;100112.84;;;29.48;100.00
49723;BME280;43484;43.608;1.458;2023-08-12T12:20:19;100111.22;;;29.45;100.00
49723;BME280;43484;43.608;1.458;2023-08-12T12:22:48;100108.59;;;29.24;100.00
49723;BME280;43484;43.608;1.458;2023-08-12T12:25:17;100106.53;;;29.52;100.00
49723;BME280;43484;43.608;1.458;2023-08-12T12:27:47;100108.09;;;29.76;100.00
49723;BME280;43484;43.608;1.458;2023-08-12T12:30:15;100101.44;;;29.68;100.00
49723;BME280;43484;43.608;1.458;2023-08-12T12:32:42;100100.09;;;29.78;100.00
49723;BME280;43484;43.608;1.458;2023-08-12T12:35:09;100110.03;;;29.73;100.00
49723;BME280;43484;43.608;1.458;2023-08-12T12:37:36;100102.31;;;29.68;100.00
49723;BME280;43484;43.608;1.458;2023-08-12T12:40:04;100098.91;;;29.65;100.00
49723;BME280;43484;43.608;1.458;2023-08-12T12:42:32;100098.91;;;29.65;100.00
49723;BME280;43484;43.608;1.458;2023-08-12T12:44:58;100108.31;;;29.72;100.00
49723;BME280;43484;43.608;1.458;2023-08-12T12:47:25;100100.56;;;29.87;100.00